createdAt,value
2019-01-03T00:00:56.626Z,100549.31
2019-01-03T00:03:47.522Z,100557.58
2019-01-03T00:06:34.478Z,100555.02
2019-01-03T00:09:21.530Z,100560.70
2019-01-03T00:12:16.043Z,100567.00
2019-01-03T00:15:19.563Z,100567.50
2019-01-03T00:18:07.770Z,100562.50
2019-01-03T00:20:50.982Z,100565.22
2019-01-03T00:23:50.334Z,100566.70
2019-01-03T00:26:35.016Z,100566.02
2019-01-03T00:29:38.440Z,100575.91
2019-01-03T00:32:26.543Z,100572.03
2019-01-03T00:35:12.636Z,100572.55
2019-01-03T00:37:59.658Z,100578.36
2019-01-03T00:40:39.071Z,100582.56
2019-01-03T00:43:29.967Z,100580.33
2019-01-03T00:46:33.433Z,100579.28
2019-01-03T00:49:27.842Z,100584.35
2019-01-03T00:52:08.808Z,100582.44
2019-01-03T00:54:56.882Z,100583.64
2019-01-03T00:57:39.825Z,100592.23
2019-01-03T01:00:30.506Z,100582.47
2019-01-03T01:03:21.717Z,100586.84
2019-01-03T01:06:18.968Z,100588.80
2019-01-03T01:09:05.793Z,100591.70
2019-01-03T01:11:53.929Z,100593.52
2019-01-03T01:14:42.021Z,100590.22
2019-01-03T01:17:32.069Z,100602.20
2019-01-03T01:20:18.859Z,100602.17
2019-01-03T01:23:21.466Z,100606.63
2019-01-03T01:26:15.876Z,100604.04
2019-01-03T01:29:10.141Z,100609.09
2019-01-03T01:31:58.295Z,100615.53
2019-01-03T01:34:49.555Z,100609.92
2019-01-03T01:37:46.621Z,100610.01
2019-01-03T01:40:46.798Z,100604.91
2019-01-03T01:43:47.235Z,100617.02
2019-01-03T01:46:38.116Z,100615.73
2019-01-03T01:49:32.110Z,100613.14
2019-01-03T01:52:22.348Z,100614.00
2019-01-03T01:55:25.590Z,100619.05
2019-01-03T01:58:12.345Z,100624.10
2019-01-03T02:01:02.000Z,100618.55
2019-01-03T02:04:02.530Z,100621.58
2019-01-03T02:06:53.232Z,100618.42
2019-01-03T02:09:40.443Z,100617.91
2019-01-03T02:12:27.730Z,100614.56
2019-01-03T02:15:22.395Z,100615.53
2019-01-03T02:18:09.771Z,100603.71
2019-01-03T02:20:57.862Z,100606.44
2019-01-03T02:23:40.054Z,100613.48
2019-01-03T02:26:35.845Z,100611.72
2019-01-03T02:29:39.107Z,100607.50
2019-01-03T02:32:42.694Z,100604.88
2019-01-03T02:35:28.327Z,100604.83
2019-01-03T02:38:34.579Z,100601.06
2019-01-03T02:41:30.824Z,100596.20
2019-01-03T02:44:22.044Z,100595.42
2019-01-03T02:47:24.618Z,100589.23
2019-01-03T02:50:12.757Z,100608.61
2019-01-03T02:52:59.889Z,100617.89
2019-01-03T02:55:42.579Z,100619.30
2019-01-03T02:58:26.551Z,100614.06
2019-01-03T03:01:13.316Z,100611.06
2019-01-03T03:04:04.500Z,100594.90
2019-01-03T03:06:49.818Z,100600.75
2019-01-03T03:09:37.984Z,100599.43
2019-01-03T03:12:23.851Z,100599.43
2019-01-03T03:15:10.829Z,100610.62
2019-01-03T03:17:50.819Z,100603.33
2019-01-03T03:20:41.791Z,100599.89
2019-01-03T03:23:26.921Z,100600.73
2019-01-03T03:26:13.910Z,100596.87
2019-01-03T03:29:02.171Z,100587.23
2019-01-03T03:31:49.061Z,100576.69
2019-01-03T03:34:40.186Z,100579.79
2019-01-03T03:37:30.559Z,100589.75
2019-01-03T03:40:30.955Z,100587.73
2019-01-03T03:43:32.062Z,100586.05
2019-01-03T03:46:12.189Z,100586.08
2019-01-03T03:49:00.291Z,100588.18
2019-01-03T03:52:04.645Z,100586.58
2019-01-03T03:54:51.318Z,100584.35
2019-01-03T03:57:38.488Z,100586.00
2019-01-03T04:00:29.429Z,100574.25
2019-01-03T04:03:35.915Z,100572.98
2019-01-03T04:06:22.936Z,100563.79
2019-01-03T04:09:29.311Z,100564.84
2019-01-03T04:12:13.882Z,100556.63
2019-01-03T04:15:11.032Z,100560.92
2019-01-03T04:17:53.869Z,100558.20
2019-01-03T04:20:44.861Z,100557.34
2019-01-03T04:23:27.424Z,100558.31
2019-01-03T04:26:15.543Z,100559.67
2019-01-03T04:29:09.879Z,100553.59
2019-01-03T04:31:58.794Z,100562.27
2019-01-03T04:34:59.255Z,100565.83
2019-01-03T04:37:48.136Z,100565.70
2019-01-03T04:40:35.383Z,100563.97
2019-01-03T04:43:27.005Z,100573.52
2019-01-03T04:46:17.092Z,100575.40
2019-01-03T04:49:00.411Z,100566.86
2019-01-03T04:51:47.411Z,100574.27
2019-01-03T04:54:34.420Z,100563.66
2019-01-03T04:57:21.452Z,100565.20
2019-01-03T05:00:18.814Z,100564.96
2019-01-03T05:03:05.635Z,100567.72
2019-01-03T05:05:53.791Z,100560.43
2019-01-03T05:08:38.055Z,100547.36
2019-01-03T05:11:25.233Z,100546.39
2019-01-03T05:14:12.365Z,100556.55
2019-01-03T05:16:59.323Z,100558.50
2019-01-03T05:19:46.216Z,100558.80
2019-01-03T05:22:40.563Z,100562.25
2019-01-03T05:25:27.340Z,100563.22
2019-01-03T05:28:27.559Z,100562.04
2019-01-03T05:31:19.015Z,100570.27
2019-01-03T05:34:04.574Z,100565.38
2019-01-03T05:37:01.537Z,100570.86
2019-01-03T05:43:31.171Z,100570.44
2019-01-03T05:46:33.708Z,100573.54
2019-01-03T05:49:40.779Z,100578.00
2019-01-03T05:52:47.868Z,100573.08
2019-01-03T05:55:54.979Z,100571.39
2019-01-03T05:59:02.041Z,100568.33
2019-01-03T06:02:09.194Z,100576.24
2019-01-03T06:04:57.292Z,100570.16
2019-01-03T06:08:04.515Z,100566.75
2019-01-03T06:11:11.653Z,100563.42
2019-01-03T06:14:18.727Z,100561.66
2019-01-03T06:17:25.824Z,100564.45
2019-01-03T06:20:32.917Z,100568.95
2019-01-03T06:23:40.031Z,100571.17
2019-01-03T06:26:47.132Z,100571.64
2019-01-03T06:29:54.193Z,100558.28
2019-01-03T06:33:01.307Z,100562.63
2019-01-03T06:36:08.804Z,100559.62
2019-01-03T06:39:16.253Z,100565.63
2019-01-03T06:42:23.346Z,100567.23
2019-01-03T06:45:30.431Z,100554.05
2019-01-03T06:48:37.526Z,100558.16
2019-01-03T06:51:44.633Z,100560.28
2019-01-03T06:54:51.713Z,100557.34
2019-01-03T06:57:50.558Z,100566.12
2019-01-03T07:00:57.626Z,100560.80
2019-01-03T07:03:46.737Z,100566.63
2019-01-03T07:09:37.010Z,100570.61
2019-01-03T07:12:25.103Z,100571.94
2019-01-03T07:15:13.164Z,100574.94
2019-01-03T07:18:20.293Z,100575.94
2019-01-03T07:21:08.404Z,100570.78
2019-01-03T07:24:15.566Z,100576.89
2019-01-03T07:27:22.688Z,100576.87
2019-01-03T07:30:04.762Z,100576.69
2019-01-03T07:33:08.232Z,100575.15
2019-01-03T07:36:15.581Z,100582.13
2019-01-03T07:39:22.704Z,100582.09
2019-01-03T07:48:39.442Z,100591.12
2019-01-03T07:51:46.512Z,100590.64
2019-01-03T07:54:53.703Z,100591.58
2019-01-03T07:58:00.809Z,100601.27
2019-01-03T08:01:07.969Z,100600.31
2019-01-03T08:04:15.102Z,100604.19
2019-01-03T08:07:03.310Z,100600.86
2019-01-03T08:09:51.374Z,100602.83
2019-01-03T08:12:58.584Z,100595.55
2019-01-03T08:16:05.686Z,100597.56
2019-01-03T08:19:12.747Z,100601.02
2019-01-03T08:22:19.888Z,100598.84
2019-01-03T08:25:26.957Z,100607.08
2019-01-03T08:28:34.048Z,100608.61
2019-01-03T08:31:41.146Z,100614.33
2019-01-03T08:34:48.232Z,100618.52
2019-01-03T08:37:55.328Z,100626.50
2019-01-03T08:41:02.409Z,100628.59
2019-01-03T08:43:50.497Z,100627.52
2019-01-03T08:46:57.581Z,100619.71
2019-01-03T08:50:04.692Z,100619.30
2019-01-03T08:53:11.851Z,100615.27
2019-01-03T08:55:59.916Z,100614.94
2019-01-03T08:59:04.810Z,100624.88
2019-01-03T09:02:11.925Z,100631.41
2019-01-03T09:05:19.083Z,100635.11
2019-01-03T09:08:26.183Z,100645.87
2019-01-03T09:11:33.259Z,100643.66
2019-01-03T09:14:40.388Z,100642.47
2019-01-03T09:17:47.483Z,100638.89
2019-01-03T09:20:54.601Z,100643.34
2019-01-03T09:24:01.745Z,100642.83
2019-01-03T09:27:12.381Z,100652.41
2019-01-03T09:30:17.642Z,100653.36
2019-01-03T09:33:24.704Z,100648.67
2019-01-03T09:39:58.940Z,100645.86
2019-01-03T09:42:47.021Z,100649.60
2019-01-03T09:45:16.168Z,100645.53
2019-01-03T09:48:04.391Z,100651.45
2019-01-03T09:50:52.479Z,100648.22
2019-01-03T09:53:40.709Z,100649.70
2019-01-03T09:56:09.998Z,100644.95
2019-01-03T09:58:58.156Z,100632.30
2019-01-03T10:01:46.635Z,100625.38
2019-01-03T10:07:22.991Z,100600.70
2019-01-03T10:10:11.222Z,100604.25
2019-01-03T10:12:59.454Z,100608.02
2019-01-03T10:15:28.769Z,100607.23
2019-01-03T10:18:21.170Z,100611.47
2019-01-03T10:21:10.407Z,100606.52
2019-01-03T10:23:58.629Z,100601.62
2019-01-03T10:26:46.820Z,100601.55
2019-01-03T10:29:16.190Z,100602.72
2019-01-03T10:32:04.412Z,100613.87
2019-01-03T10:34:52.518Z,100604.68
2019-01-03T10:37:21.655Z,100607.11
2019-01-03T10:40:09.842Z,100607.94
2019-01-03T10:45:46.110Z,100599.15
2019-01-03T10:48:15.347Z,100594.30
2019-01-03T10:50:44.577Z,100593.55
2019-01-03T10:53:32.707Z,100595.36
2019-01-03T10:56:01.881Z,100587.27
2019-01-03T10:58:31.325Z,100597.13
2019-01-03T11:01:00.762Z,100593.47
2019-01-03T11:03:29.885Z,100594.79
2019-01-03T11:06:18.106Z,100589.40
2019-01-03T11:08:47.259Z,100588.41
2019-01-03T11:11:16.380Z,100583.97
2019-01-03T11:13:45.570Z,100588.05
2019-01-03T11:16:14.778Z,100583.69
2019-01-03T11:18:43.949Z,100573.45
2019-01-03T11:21:13.083Z,100574.23
2019-01-03T11:23:42.530Z,100565.84
2019-01-03T11:26:11.751Z,100563.74
2019-01-03T11:28:40.997Z,100561.89
2019-01-03T11:31:10.230Z,100562.75
2019-01-03T11:33:39.522Z,100560.68
2019-01-03T11:36:27.629Z,100560.09
2019-01-03T11:39:15.841Z,100567.89
2019-01-03T11:41:44.859Z,100564.34
2019-01-03T11:44:33.057Z,100567.50
2019-01-03T11:47:21.161Z,100564.87
2019-01-03T11:50:09.353Z,100560.46
2019-01-03T11:56:28.327Z,100560.28
2019-01-03T12:01:51.648Z,100568.67
2019-01-03T12:05:00.219Z,100562.47
2019-01-03T12:07:29.472Z,100554.31
2019-01-03T12:10:17.655Z,100554.19
2019-01-03T12:13:05.820Z,100559.86
2019-01-03T12:15:46.838Z,100553.22
2019-01-03T12:18:35.087Z,100556.36
2019-01-03T12:21:23.225Z,100555.87
2019-01-03T12:23:52.434Z,100552.68
2019-01-03T12:26:40.579Z,100553.01
2019-01-03T12:29:09.798Z,100550.05
2019-01-03T12:31:58.089Z,100546.38
2019-01-03T12:37:34.507Z,100552.20
2019-01-03T12:40:03.848Z,100546.83
2019-01-03T12:42:51.953Z,100554.64
2019-01-03T12:45:21.080Z,100552.61
2019-01-03T12:48:09.198Z,100556.41
2019-01-03T12:50:57.349Z,100556.59
2019-01-03T12:53:45.674Z,100561.33
2019-01-03T12:56:33.958Z,100560.59
2019-01-03T12:59:03.088Z,100551.92
2019-01-03T13:01:51.207Z,100554.19
2019-01-03T13:04:39.610Z,100555.83
2019-01-03T13:07:09.083Z,100565.05
2019-01-03T13:09:57.356Z,100561.82
2019-01-03T13:12:37.878Z,100557.67
2019-01-03T13:15:46.949Z,100558.83
2019-01-03T13:18:16.245Z,100555.59
2019-01-03T13:21:04.351Z,100567.26
2019-01-03T13:23:33.854Z,100564.22
2019-01-03T13:26:03.308Z,100562.39
2019-01-03T13:29:12.077Z,100562.77
2019-01-03T13:31:41.249Z,100561.39
2019-01-03T13:34:29.506Z,100566.18
2019-01-03T13:37:17.750Z,100559.59
2019-01-03T13:40:26.394Z,100564.89
2019-01-03T13:43:14.536Z,100570.34
2019-01-03T13:45:43.671Z,100571.20
2019-01-03T13:48:13.143Z,100569.63
2019-01-03T13:51:21.754Z,100574.44
2019-01-03T13:53:51.306Z,100573.22
2019-01-03T13:56:39.564Z,100580.61
2019-01-03T13:59:27.598Z,100577.53
2019-01-03T14:01:56.726Z,100578.63
2019-01-03T14:04:44.880Z,100585.89
2019-01-03T14:07:33.078Z,100583.30
2019-01-03T14:10:02.314Z,100582.44
2019-01-03T14:12:50.496Z,100575.98
2019-01-03T14:15:19.614Z,100579.48
2019-01-03T14:18:07.889Z,100575.42
2019-01-03T14:21:16.495Z,100575.07
2019-01-03T14:24:04.675Z,100575.05
2019-01-03T14:26:52.848Z,100580.52
2019-01-03T14:29:41.049Z,100585.02
2019-01-03T14:32:10.219Z,100584.48
2019-01-03T14:34:58.338Z,100583.80
2019-01-03T14:37:27.473Z,100583.30
2019-01-03T14:43:03.761Z,100591.06
2019-01-03T14:45:51.890Z,100594.52
2019-01-03T14:48:40.092Z,100591.60
2019-01-03T14:51:28.258Z,100590.80
2019-01-03T14:54:56.240Z,100596.92
2019-01-03T15:04:09.184Z,100590.11
2019-01-03T15:10:38.768Z,100581.58
2019-01-03T15:13:12.294Z,100582.39
2019-01-03T15:16:03.876Z,100581.58
2019-01-03T15:19:28.213Z,100578.94
2019-01-03T15:25:54.423Z,100581.52
2019-01-03T15:38:25.072Z,100582.38
2019-01-03T15:48:04.032Z,100582.11
2019-01-03T15:51:13.541Z,100584.50
2019-01-03T15:53:45.730Z,100592.80
2019-01-03T15:56:40.393Z,100594.48
2019-01-03T15:59:13.688Z,100604.23
2019-01-03T16:05:36.909Z,100601.64
2019-01-03T16:07:56.467Z,100603.20
2019-01-03T16:10:33.199Z,100600.48
2019-01-03T16:13:03.651Z,100600.58
2019-01-03T16:22:00.033Z,100601.78
2019-01-03T16:24:36.423Z,100606.14
2019-01-03T16:27:49.829Z,100603.75
2019-01-03T16:31:00.077Z,100610.58
2019-01-03T16:34:14.590Z,100613.17
2019-01-03T16:37:14.501Z,100621.64
2019-01-03T16:40:24.623Z,100623.81
2019-01-03T16:50:25.118Z,100626.28
2019-01-03T16:53:08.659Z,100624.38
2019-01-03T16:55:56.811Z,100626.48
2019-01-03T16:58:46.739Z,100620.07
2019-01-03T17:01:34.856Z,100616.78
2019-01-03T17:04:23.082Z,100620.85
2019-01-03T17:07:11.384Z,100616.98
2019-01-03T17:10:10.299Z,100617.65
2019-01-03T17:13:30.426Z,100622.99
2019-01-03T17:22:38.068Z,100616.83
2019-01-03T17:29:07.591Z,100629.58
2019-01-03T17:32:25.919Z,100631.79
2019-01-03T17:38:11.710Z,100636.16
2019-01-03T17:41:15.540Z,100646.19
2019-01-03T17:43:53.257Z,100647.70
2019-01-03T17:46:41.388Z,100645.52
2019-01-03T17:49:29.703Z,100644.91
2019-01-03T17:52:17.877Z,100650.25
2019-01-03T17:55:07.173Z,100649.14
2019-01-03T17:58:15.920Z,100645.64
2019-01-03T18:00:46.681Z,100641.06
2019-01-03T18:03:34.847Z,100647.45
2019-01-03T18:06:04.123Z,100642.72
2019-01-03T18:08:52.279Z,100641.81
2019-01-03T18:11:40.482Z,100644.48
2019-01-03T18:14:28.679Z,100643.70
2019-01-03T18:16:57.830Z,100630.02
2019-01-03T18:19:46.040Z,100649.37
2019-01-03T18:25:03.377Z,100646.55
2019-01-03T18:27:51.501Z,100639.40
2019-01-03T18:30:20.641Z,100627.97
2019-01-03T18:32:49.807Z,100635.00
2019-01-03T18:35:19.005Z,100635.16
2019-01-03T18:37:48.146Z,100639.55
2019-01-03T18:40:36.718Z,100639.52
2019-01-03T18:43:06.262Z,100635.53
2019-01-03T18:45:54.435Z,100621.92
2019-01-03T18:48:42.646Z,100620.73
2019-01-03T18:51:11.829Z,100613.66
2019-01-03T18:53:41.001Z,100628.70
2019-01-03T18:56:29.164Z,100622.32
2019-01-03T18:58:58.331Z,100629.39
2019-01-03T19:01:27.598Z,100630.86
2019-01-03T19:04:36.188Z,100637.20
2019-01-03T19:07:05.694Z,100640.09
2019-01-03T19:09:53.875Z,100633.56
2019-01-03T19:15:30.194Z,100639.45
2019-01-03T19:18:18.376Z,100639.01
2019-01-03T19:21:06.552Z,100646.97
2019-01-03T19:24:15.203Z,100651.36
2019-01-03T19:26:44.363Z,100657.59
2019-01-03T19:29:32.559Z,100654.03
2019-01-03T19:32:13.341Z,100659.81
2019-01-03T19:35:01.553Z,100658.42
2019-01-03T19:37:49.744Z,100661.13
2019-01-03T19:40:37.903Z,100657.26
2019-01-03T19:46:00.714Z,100657.07
2019-01-03T19:48:29.935Z,100659.70
2019-01-03T19:50:59.098Z,100657.87
2019-01-03T19:53:28.356Z,100656.73
2019-01-03T19:55:57.492Z,100661.54
2019-01-03T19:58:26.670Z,100661.02
2019-01-03T20:00:55.843Z,100658.50
2019-01-03T20:03:25.016Z,100654.03
2019-01-03T20:05:54.157Z,100671.50
2019-01-03T20:08:23.385Z,100675.45
2019-01-03T20:10:52.568Z,100676.41
2019-01-03T20:13:21.801Z,100684.75
2019-01-03T20:15:51.003Z,100684.68
2019-01-03T20:18:20.205Z,100677.31
2019-01-03T20:20:52.922Z,100680.81
2019-01-03T20:23:39.526Z,100681.22
2019-01-03T20:29:16.296Z,100676.69
2019-01-03T20:32:04.564Z,100677.63
2019-01-03T20:34:33.733Z,100679.09
2019-01-03T20:37:21.915Z,100679.95
2019-01-03T20:40:29.385Z,100677.98
2019-01-03T20:43:17.684Z,100677.69
2019-01-03T20:46:05.858Z,100682.72
2019-01-03T20:48:54.073Z,100677.18
2019-01-03T20:51:42.209Z,100680.84
2019-01-03T20:54:30.412Z,100665.30
2019-01-03T20:57:18.626Z,100665.25
2019-01-03T21:00:06.770Z,100662.17
2019-01-03T21:02:55.351Z,100667.02
2019-01-03T21:08:32.061Z,100680.09
2019-01-03T21:14:27.479Z,100678.77
2019-01-03T21:23:16.446Z,100672.96
2019-01-03T21:25:45.625Z,100669.70
2019-01-03T21:28:33.755Z,100674.09
2019-01-03T21:31:21.961Z,100668.11
2019-01-03T21:34:10.215Z,100673.45
2019-01-03T21:37:18.931Z,100673.50
2019-01-03T21:42:41.886Z,100672.75
2019-01-03T21:45:11.035Z,100677.17
2019-01-03T21:47:59.453Z,100673.84
2019-01-03T21:50:28.610Z,100676.50
2019-01-03T21:53:16.829Z,100673.05
2019-01-03T21:55:45.978Z,100677.22
2019-01-03T21:58:34.129Z,100678.39
2019-01-03T22:01:22.329Z,100672.94
2019-01-03T22:04:10.510Z,100679.84
2019-01-03T22:06:58.685Z,100682.86
2019-01-03T22:09:46.917Z,100680.34
2019-01-03T22:12:35.018Z,100666.92
2019-01-03T22:15:04.231Z,100669.67
2019-01-03T22:17:52.382Z,100660.84
2019-01-03T22:20:40.553Z,100662.52
2019-01-03T22:26:03.799Z,100654.78
2019-01-03T22:28:51.885Z,100653.44
2019-01-03T22:31:40.133Z,100652.57
2019-01-03T22:34:09.361Z,100655.27
2019-01-03T22:36:57.536Z,100652.49
2019-01-03T22:39:45.718Z,100648.05
2019-01-03T22:42:14.918Z,100647.31
2019-01-03T22:47:51.210Z,100645.76
2019-01-03T22:50:20.285Z,100646.82
2019-01-03T22:55:56.887Z,100641.56
2019-01-03T22:58:26.021Z,100645.58
2019-01-03T23:01:36.104Z,100643.10
2019-01-03T23:04:24.174Z,100638.93
2019-01-03T23:07:12.271Z,100633.89
2019-01-03T23:09:41.443Z,100637.80
2019-01-03T23:12:10.692Z,100636.86
2019-01-03T23:18:05.943Z,100629.98
2019-01-03T23:23:42.218Z,100627.25
2019-01-03T23:26:11.408Z,100618.49
2019-01-03T23:28:59.926Z,100626.01
2019-01-03T23:31:48.042Z,100624.73
2019-01-03T23:34:36.149Z,100627.58
2019-01-03T23:37:24.250Z,100623.37
2019-01-03T23:40:12.411Z,100639.08
2019-01-03T23:43:00.470Z,100634.55
2019-01-03T23:45:30.321Z,100628.28
2019-01-03T23:48:19.278Z,100626.70
2019-01-03T23:51:07.507Z,100624.06
2019-01-03T23:56:43.879Z,100615.20
2019-01-03T23:59:31.958Z,100612.86
